Johnson County (6A4)
Johnson County, TN
Field Elevation: 2240
Lat: 36°25.07N  Long: 81°49.51W
CTAF/Unicom Freq: 122.7000
   
    
Weather Advisories
2016-02-09   15:38 Z
Altimeter 29.70" Hg
Wind 270° @ 10 KT
Gusts 19 KT
Visibility 1 1/4 SM
Ceiling VV023
Temperature -6° C (21° F)
Dewpoint -10° C (14° F)
Relative Humidity 73%
Density Altitude --
Condensation Altitude 4,200 feet
Wind Chill: -13° C (9° F)
Wind and Runways
Indicated Runway = 24
Headwind = 9 kt
Crosswind = 5 kt
History
 
 
 
More Info
NOAA Forecast
 
 
About Us
Belfort Instrument
 
 
FAA Disclaimer: The data displayed is for advisory purposes only and is not to be used for flight planning or operations. For official data, please call (not available) to hear the current automated AWOS voice message.
  METAR 6A4 091538Z AUTO 27010G19KT 1 1/4 SM VV023 M06/M10 A2970